Time;durP1;ratioP1;P1;durP2;ratioP2;P2;SDS_P1;SDS_P2;PMS_P1;PMS_P2;Temp;Humidity;BMP_temperature;BMP_pressure;BME280_temperature;BME280_humidity;BME280_pressure;Samples;Min_cycle;Max_cycle;Signal;HPM_P1;HPM_P2
2022/12/07 00:01:43;;;;;;;30.27;23.57;;;;;;;;;;5093861;28;20633;-71
2022/12/07 00:04:11;;;;;;;24.57;21.03;;;;;;;;;;5095173;28;20230;-71
2022/12/07 00:06:38;;;;;;;26.53;22.17;;;;;;;;;;5093513;28;20208;-71
2022/12/07 00:09:04;;;;;;;27.17;23.03;;;;;;;;;;5094941;28;20184;-71
2022/12/07 00:11:30;;;;;;;25.37;22.30;;;;;;;;;;5093880;28;20529;-70
2022/12/07 00:14:01;;;;;;;26.23;22.97;;;;;;;;;;5095078;28;20243;-71
2022/12/07 00:16:29;;;;;;;26.67;23.30;;;;;;;;;;5093268;28;20181;-71
2022/12/07 00:18:55;;;;;;;31.47;24.97;;;;;;;;;;5093426;28;20177;-70
2022/12/07 00:21:23;;;;;;;28.73;23.33;;;;;;;;;;5094052;28;20176;-70
2022/12/07 00:23:49;;;;;;;29.63;23.63;;;;;;;;;;5094772;28;20196;-70
2022/12/07 00:26:20;;;;;;;31.50;25.07;;;;;;;;;;5094647;28;20185;-70
2022/12/07 00:28:47;;;;;;;27.60;24.00;;;;;;;;;;5093287;28;20556;-71
2022/12/07 00:31:13;;;;;;;28.83;24.47;;;;;;;;;;5093041;28;20185;-71
2022/12/07 00:33:39;;;;;;;27.93;23.77;;;;;;;;;;5094437;28;20174;-70
2022/12/07 00:36:08;;;;;;;32.27;26.37;;;;;;;;;;5094214;28;20629;-71
2022/12/07 00:38:35;;;;;;;30.50;25.57;;;;;;;;;;5092903;28;20237;-71
2022/12/07 00:41:03;;;;;;;26.47;23.47;;;;;;;;;;5094713;28;20173;-70
2022/12/07 00:43:29;;;;;;;28.13;23.77;;;;;;;;;;5094278;28;20180;-71
2022/12/07 00:45:55;;;;;;;31.83;25.90;;;;;;;;;;5094261;28;20172;-70
2022/12/07 00:48:22;;;;;;;31.57;25.43;;;;;;;;;;5094065;28;20294;-71
2022/12/07 00:50:48;;;;;;;30.17;25.30;;;;;;;;;;5094452;28;20181;-71
2022/12/07 00:53:14;;;;;;;33.63;24.93;;;;;;;;;;5092775;28;20613;-70
2022/12/07 00:55:40;;;;;;;29.37;24.23;;;;;;;;;;5093950;28;20204;-70
2022/12/07 00:58:06;;;;;;;27.63;24.63;;;;;;;;;;5094191;28;20243;-70
2022/12/07 01:00:33;;;;;;;28.93;25.50;;;;;;;;;;5092666;28;20523;-71
2022/12/07 01:02:59;;;;;;;28.50;23.60;;;;;;;;;;5094069;28;20177;-72
2022/12/07 01:05:25;;;;;;;29.33;24.70;;;;;;;;;;5092636;28;20183;-71
2022/12/07 01:07:51;;;;;;;28.37;24.13;;;;;;;;;;5093839;28;20204;-70
2022/12/07 01:10:17;;;;;;;28.03;24.17;;;;;;;;;;5093765;28;20759;-70
2022/12/07 01:12:43;;;;;;;27.37;24.37;;;;;;;;;;5094065;28;20208;-70
2022/12/07 01:15:09;;;;;;;26.73;23.73;;;;;;;;;;5093979;28;20187;-70
2022/12/07 01:17:35;;;;;;;31.57;23.60;;;;;;;;;;5092296;28;20284;-71
2022/12/07 01:20:02;;;;;;;29.57;24.20;;;;;;;;;;5093742;28;20169;-71
2022/12/07 01:22:28;;;;;;;26.77;23.93;;;;;;;;;;5093947;28;20177;-70
2022/12/07 01:24:54;;;;;;;28.97;22.77;;;;;;;;;;5093745;28;20201;-70
2022/12/07 01:27:20;;;;;;;29.10;24.77;;;;;;;;;;5092046;28;20620;-71
2022/12/07 01:29:46;;;;;;;28.70;24.80;;;;;;;;;;5093601;28;20200;-71
2022/12/07 01:32:12;;;;;;;29.17;24.07;;;;;;;;;;5092930;28;20574;-72
2022/12/07 01:34:38;;;;;;;30.17;24.30;;;;;;;;;;5093590;28;20223;-71
2022/12/07 01:37:04;;;;;;;30.97;24.97;;;;;;;;;;5091869;28;20226;-70
2022/12/07 01:39:30;;;;;;;32.77;25.10;;;;;;;;;;5093426;28;20545;-70
2022/12/07 01:41:56;;;;;;;28.83;24.13;;;;;;;;;;5093627;28;20241;-70
2022/12/07 01:44:23;;;;;;;28.27;24.67;;;;;;;;;;5092115;28;20174;-71
2022/12/07 01:46:49;;;;;;;29.00;25.10;;;;;;;;;;5093509;28;20664;-70
2022/12/07 01:49:18;;;;;;;35.10;25.50;;;;;;;;;;5092104;28;20191;-70
2022/12/07 01:51:44;;;;;;;33.97;25.07;;;;;;;;;;5093450;28;20184;-70
2022/12/07 01:54:12;;;;;;;30.63;24.33;;;;;;;;;;5092228;28;20181;-70
2022/12/07 01:56:39;;;;;;;26.17;23.30;;;;;;;;;;5093826;28;20212;-71
2022/12/07 01:59:05;;;;;;;30.23;24.90;;;;;;;;;;5093572;28;20173;-70
2022/12/07 02:01:31;;;;;;;33.10;25.33;;;;;;;;;;5092426;28;20169;-70
2022/12/07 02:03:57;;;;;;;30.27;24.77;;;;;;;;;;5093562;28;20648;-71
2022/12/07 02:06:25;;;;;;;32.03;24.50;;;;;;;;;;5093365;28;20208;-70
2022/12/07 02:08:51;;;;;;;31.23;25.07;;;;;;;;;;5092061;28;20231;-71
2022/12/07 02:11:17;;;;;;;33.90;26.90;;;;;;;;;;5093504;28;20177;-70
2022/12/07 02:13:43;;;;;;;34.30;27.30;;;;;;;;;;5091898;28;20181;-70
2022/12/07 02:16:15;;;;;;;31.07;25.27;;;;;;;;;;5093749;28;20610;-70
2022/12/07 02:18:57;;;;;;;33.83;28.73;;;;;;;;;;5093616;28;20261;-70
2022/12/07 02:21:29;;;;;;;35.57;27.33;;;;;;;;;;5093804;28;20245;-71
2022/12/07 02:24:09;;;;;;;33.50;25.43;;;;;;;;;;5092069;28;20169;-70
2022/12/07 02:26:58;;;;;;;30.07;25.47;;;;;;;;;;5093692;28;20201;-71
2022/12/07 02:29:43;;;;;;;32.07;25.87;;;;;;;;;;5083375;28;20199;-71
2022/12/07 02:32:13;;;;;;;35.57;27.33;;;;;;;;;;5093079;28;20597;-70
2022/12/07 02:34:38;;;;;;;35.83;25.80;;;;;;;;;;5094556;28;20203;-71
2022/12/07 02:37:10;;;;;;;32.20;26.93;;;;;;;;;;5096254;28;20220;-70
2022/12/07 02:39:52;;;;;;;34.07;25.40;;;;;;;;;;5097007;28;20157;-70
2022/12/07 02:42:19;;;;;;;32.50;26.23;;;;;;;;;;5095444;28;20185;-70
2022/12/07 02:44:46;;;;;;;32.00;25.90;;;;;;;;;;5094028;28;20188;-70
2022/12/07 02:47:14;;;;;;;35.77;26.70;;;;;;;;;;5095951;28;20292;-70
2022/12/07 02:49:40;;;;;;;33.83;25.27;;;;;;;;;;5104060;28;20204;-70
2022/12/07 02:52:06;;;;;;;38.77;26.77;;;;;;;;;;5108398;28;20181;-71
2022/12/07 02:54:32;;;;;;;34.57;26.20;;;;;;;;;;5108124;28;20208;-70
2022/12/07 02:57:09;;;;;;;34.77;27.07;;;;;;;;;;5124614;22;20233;-73
2022/12/07 02:59:41;;;;;;;37.07;27.63;;;;;;;;;;5094483;28;20750;-72
2022/12/07 03:02:22;;;;;;;31.70;25.83;;;;;;;;;;5094698;28;20205;-70
2022/12/07 03:04:48;;;;;;;36.50;26.87;;;;;;;;;;5078775;28;20181;-70
2022/12/07 03:07:23;;;;;;;35.17;27.60;;;;;;;;;;5113072;28;20204;-70
2022/12/07 03:10:01;;;;;;;34.70;27.33;;;;;;;;;;5099370;28;20165;-72
2022/12/07 03:12:32;;;;;;;34.77;26.20;;;;;;;;;;5098068;28;20176;-70
2022/12/07 03:15:07;;;;;;;37.00;25.43;;;;;;;;;;5098710;28;20188;-71
2022/12/07 03:17:35;;;;;;;37.60;26.57;;;;;;;;;;5099138;28;20318;-71
2022/12/07 03:20:04;;;;;;;38.67;27.47;;;;;;;;;;5099320;28;20201;-71
2022/12/07 03:22:32;;;;;;;32.60;25.60;;;;;;;;;;5097412;28;20642;-71
2022/12/07 03:24:59;;;;;;;33.67;26.73;;;;;;;;;;5097039;28;20182;-71
2022/12/07 03:27:27;;;;;;;34.37;28.00;;;;;;;;;;5098690;28;20250;-71
2022/12/07 03:29:56;;;;;;;34.97;26.90;;;;;;;;;;5098740;28;20645;-70
2022/12/07 03:32:27;;;;;;;40.20;26.53;;;;;;;;;;5098583;28;20185;-72
2022/12/07 03:34:56;;;;;;;37.30;28.33;;;;;;;;;;5098993;28;20203;-72
2022/12/07 03:37:26;;;;;;;36.33;29.10;;;;;;;;;;5098636;28;20201;-72
2022/12/07 03:40:11;;;;;;;39.33;29.63;;;;;;;;;;5097427;28;20177;-70
2022/12/07 03:42:37;;;;;;;38.30;27.97;;;;;;;;;;5097197;28;20525;-71
2022/12/07 03:45:04;;;;;;;34.93;28.30;;;;;;;;;;5098221;28;20206;-71
2022/12/07 03:47:33;;;;;;;39.60;28.30;;;;;;;;;;5097538;28;20181;-72
2022/12/07 03:50:03;;;;;;;41.47;30.07;;;;;;;;;;5098102;28;20537;-71
2022/12/07 03:52:43;;;;;;;37.80;29.50;;;;;;;;;;5098855;28;20177;-69
2022/12/07 03:55:19;;;;;;;38.60;29.23;;;;;;;;;;5096951;28;20419;-71
2022/12/07 03:57:46;;;;;;;39.00;28.53;;;;;;;;;;5098378;28;20219;-72
2022/12/07 04:00:13;;;;;;;36.53;28.77;;;;;;;;;;5096745;28;20231;-71
2022/12/07 04:02:39;;;;;;;36.00;28.87;;;;;;;;;;5098139;28;20179;-72
2022/12/07 04:05:06;;;;;;;41.50;29.13;;;;;;;;;;5098096;28;20252;-69
2022/12/07 04:07:32;;;;;;;35.87;29.63;;;;;;;;;;5097678;28;20199;-70
2022/12/07 04:09:58;;;;;;;39.00;29.47;;;;;;;;;;5096194;28;20415;-71
2022/12/07 04:12:24;;;;;;;35.73;27.50;;;;;;;;;;5096737;28;20203;-68
2022/12/07 04:14:50;;;;;;;39.27;28.10;;;;;;;;;;5098145;28;20671;-70
2022/12/07 04:17:16;;;;;;;35.63;27.07;;;;;;;;;;5096667;28;20219;-70
2022/12/07 04:19:42;;;;;;;35.57;26.50;;;;;;;;;;5097605;28;20199;-71
2022/12/07 04:22:08;;;;;;;35.73;27.10;;;;;;;;;;5095935;28;20183;-71
2022/12/07 04:24:34;;;;;;;38.77;25.93;;;;;;;;;;5097925;28;20180;-71
2022/12/07 04:27:00;;;;;;;38.17;27.27;;;;;;;;;;5096573;28;20209;-70
2022/12/07 04:29:26;;;;;;;36.40;26.03;;;;;;;;;;5097844;28;20177;-70
2022/12/07 04:31:52;;;;;;;37.40;27.00;;;;;;;;;;5097705;28;20310;-70
2022/12/07 04:34:18;;;;;;;34.80;26.93;;;;;;;;;;5096516;28;20188;-72
2022/12/07 04:36:44;;;;;;;32.40;25.30;;;;;;;;;;5097297;28;20216;-71
2022/12/07 04:39:22;;;;;;;35.67;26.07;;;;;;;;;;5097556;28;20181;-73
2022/12/07 04:41:48;;;;;;;37.73;26.20;;;;;;;;;;5097455;28;20181;-72
2022/12/07 04:44:14;;;;;;;33.07;25.57;;;;;;;;;;5097403;28;20225;-72
2022/12/07 04:46:41;;;;;;;32.03;24.60;;;;;;;;;;5097050;28;20574;-71
2022/12/07 04:49:07;;;;;;;34.23;25.73;;;;;;;;;;5096534;28;20596;-72
2022/12/07 04:51:33;;;;;;;35.77;25.40;;;;;;;;;;5097108;28;20209;-71
2022/12/07 04:53:59;;;;;;;31.90;23.90;;;;;;;;;;5097155;28;20181;-71
2022/12/07 04:56:25;;;;;;;27.87;22.30;;;;;;;;;;5095599;28;20224;-71
2022/12/07 04:58:52;;;;;;;31.13;22.63;;;;;;;;;;5096961;28;20177;-72
2022/12/07 05:01:18;;;;;;;31.53;21.60;;;;;;;;;;5095610;28;20177;-68
2022/12/07 05:03:45;;;;;;;32.40;22.90;;;;;;;;;;5096844;28;20559;-71
2022/12/07 05:06:11;;;;;;;32.03;21.20;;;;;;;;;;5096604;28;20281;-70
2022/12/07 05:08:37;;;;;;;28.37;19.73;;;;;;;;;;5096281;28;20205;-70
2022/12/07 05:11:04;;;;;;;27.47;21.53;;;;;;;;;;5095998;28;20230;-69
2022/12/07 05:13:30;;;;;;;29.30;20.87;;;;;;;;;;5096393;28;20182;-71
2022/12/07 05:15:56;;;;;;;29.33;20.10;;;;;;;;;;5094988;28;20688;-71
2022/12/07 05:18:22;;;;;;;27.73;19.80;;;;;;;;;;5096397;28;20287;-72
2022/12/07 05:20:49;;;;;;;29.40;20.57;;;;;;;;;;5095944;28;20201;-72
2022/12/07 05:23:15;;;;;;;26.20;19.97;;;;;;;;;;5096348;28;20181;-71
2022/12/07 05:25:41;;;;;;;30.10;18.97;;;;;;;;;;5096432;28;20303;-70
2022/12/07 05:28:07;;;;;;;27.33;18.87;;;;;;;;;;5096662;28;20173;-71
2022/12/07 05:30:33;;;;;;;27.63;18.57;;;;;;;;;;5096892;28;20211;-71
2022/12/07 05:32:59;;;;;;;30.70;19.00;;;;;;;;;;5096409;28;20265;-72
2022/12/07 05:35:25;;;;;;;27.93;19.03;;;;;;;;;;5094907;28;20204;-72
2022/12/07 05:37:51;;;;;;;31.77;19.67;;;;;;;;;;5096758;28;20288;-69
2022/12/07 05:40:18;;;;;;;28.03;18.87;;;;;;;;;;5096584;28;20177;-72
2022/12/07 05:42:44;;;;;;;29.70;18.40;;;;;;;;;;5096658;28;20177;-71
2022/12/07 05:45:11;;;;;;;25.67;17.37;;;;;;;;;;5096353;28;20188;-69
2022/12/07 05:47:38;;;;;;;26.67;17.27;;;;;;;;;;5096405;28;20174;-71
2022/12/07 05:50:05;;;;;;;20.57;16.40;;;;;;;;;;5096262;28;20185;-70
2022/12/07 05:52:31;;;;;;;22.57;15.47;;;;;;;;;;5094435;28;20180;-68
2022/12/07 05:54:57;;;;;;;23.53;16.10;;;;;;;;;;5095522;28;20587;-71
2022/12/07 05:57:23;;;;;;;23.47;17.67;;;;;;;;;;5095992;28;20635;-75
2022/12/07 05:59:49;;;;;;;24.63;17.20;;;;;;;;;;5096212;28;20180;-71
2022/12/07 06:02:16;;;;;;;25.57;17.33;;;;;;;;;;5095863;28;20181;-71
2022/12/07 06:04:43;;;;;;;23.03;17.67;;;;;;;;;;5095730;28;20175;-70
2022/12/07 06:07:10;;;;;;;23.77;18.07;;;;;;;;;;5094521;28;20250;-71
2022/12/07 06:09:36;;;;;;;23.17;15.70;;;;;;;;;;5094613;28;20185;-70
2022/12/07 06:14:48;;;;;;;26.03;16.00;;;;;;;;;;5096530;28;20261;-70
2022/12/07 06:17:14;;;;;;;23.53;16.50;;;;;;;;;;5094174;28;20277;-72
2022/12/07 06:19:40;;;;;;;24.80;16.93;;;;;;;;;;5096102;28;20176;-72
2022/12/07 06:22:06;;;;;;;29.13;16.70;;;;;;;;;;5098833;28;20177;-71
2022/12/07 06:24:33;;;;;;;23.07;14.60;;;;;;;;;;5098636;28;20180;-69
2022/12/07 06:26:59;;;;;;;25.70;16.87;;;;;;;;;;5098745;28;20200;-71
2022/12/07 06:29:25;;;;;;;25.93;16.27;;;;;;;;;;5098282;28;20581;-70
2022/12/07 06:31:51;;;;;;;20.67;16.47;;;;;;;;;;5098165;28;20177;-71
2022/12/07 06:34:18;;;;;;;24.80;16.47;;;;;;;;;;5098687;28;20555;-70
2022/12/07 06:36:45;;;;;;;28.53;16.93;;;;;;;;;;5098718;28;20216;-70
2022/12/07 06:39:11;;;;;;;30.47;15.93;;;;;;;;;;5100138;28;20196;-71
2022/12/07 06:41:38;;;;;;;25.83;16.90;;;;;;;;;;5098175;28;20177;-71
2022/12/07 06:44:07;;;;;;;28.27;17.17;;;;;;;;;;5097752;28;20306;-72
2022/12/07 06:46:35;;;;;;;27.67;16.70;;;;;;;;;;5097771;28;20208;-71
2022/12/07 06:49:01;;;;;;;22.90;16.83;;;;;;;;;;5099740;28;20176;-72
2022/12/07 06:51:26;;;;;;;24.33;16.70;;;;;;;;;;5099289;28;20177;-71
2022/12/07 06:53:52;;;;;;;27.33;17.23;;;;;;;;;;5099755;28;20212;-71
2022/12/07 06:56:19;;;;;;;23.07;16.27;;;;;;;;;;5098675;28;20219;-69
2022/12/07 06:58:45;;;;;;;29.23;17.53;;;;;;;;;;5097419;28;20205;-71
2022/12/07 07:01:12;;;;;;;24.20;16.40;;;;;;;;;;5098356;28;20177;-71
2022/12/07 07:03:38;;;;;;;21.23;15.63;;;;;;;;;;5098856;28;20212;-73
2022/12/07 07:06:04;;;;;;;24.80;16.63;;;;;;;;;;5097082;28;20205;-73
2022/12/07 07:08:30;;;;;;;21.53;17.10;;;;;;;;;;5097155;28;20678;-72
2022/12/07 07:10:56;;;;;;;22.77;16.97;;;;;;;;;;5098593;28;20256;-71
2022/12/07 07:13:22;;;;;;;26.03;17.50;;;;;;;;;;5096502;28;20213;-71
2022/12/07 07:15:48;;;;;;;26.20;18.13;;;;;;;;;;5098419;28;20208;-71
2022/12/07 07:18:14;;;;;;;24.17;18.13;;;;;;;;;;5096824;28;20211;-72
2022/12/07 07:20:40;;;;;;;25.30;17.03;;;;;;;;;;5097334;28;20599;-72
2022/12/07 07:23:07;;;;;;;30.60;17.13;;;;;;;;;;5096587;28;20182;-72
2022/12/07 07:25:33;;;;;;;24.17;17.70;;;;;;;;;;5098059;28;20676;-72
2022/12/07 07:27:59;;;;;;;24.13;18.13;;;;;;;;;;5096953;28;20192;-73
2022/12/07 07:30:25;;;;;;;28.00;18.93;;;;;;;;;;5096892;28;20200;-72
2022/12/07 07:32:51;;;;;;;28.20;18.90;;;;;;;;;;5098927;28;20177;-71
2022/12/07 07:35:17;;;;;;;25.27;18.40;;;;;;;;;;5098819;28;20181;-74
2022/12/07 07:37:43;;;;;;;25.80;17.73;;;;;;;;;;5097140;28;20208;-69
2022/12/07 07:40:10;;;;;;;25.50;18.17;;;;;;;;;;5098301;28;20594;-71
2022/12/07 07:42:36;;;;;;;23.70;18.33;;;;;;;;;;5096861;28;20184;-71
2022/12/07 07:45:02;;;;;;;29.47;18.87;;;;;;;;;;5096971;28;20268;-71
2022/12/07 07:47:28;;;;;;;30.63;19.20;;;;;;;;;;5096724;28;20642;-71
2022/12/07 07:49:54;;;;;;;29.17;17.07;;;;;;;;;;5096483;28;20506;-71
2022/12/07 07:52:20;;;;;;;22.17;18.20;;;;;;;;;;5096626;28;20796;-72
2022/12/07 07:54:47;;;;;;;24.53;18.17;;;;;;;;;;5096416;28;20188;-71
2022/12/07 07:57:13;;;;;;;30.70;19.73;;;;;;;;;;5096107;28;20697;-71
2022/12/07 07:59:39;;;;;;;32.40;20.50;;;;;;;;;;5097325;28;20246;-73
2022/12/07 08:02:05;;;;;;;27.90;19.57;;;;;;;;;;5096168;28;20645;-72
2022/12/07 08:04:31;;;;;;;28.40;19.70;;;;;;;;;;5096375;28;20169;-72
2022/12/07 08:06:57;;;;;;;35.87;24.70;;;;;;;;;;5096438;28;20223;-71
2022/12/07 08:09:23;;;;;;;33.67;24.43;;;;;;;;;;5097233;28;20260;-72
2022/12/07 08:11:49;;;;;;;70.90;48.53;;;;;;;;;;5097429;28;20446;-72
2022/12/07 08:14:15;;;;;;;83.60;58.63;;;;;;;;;;5095902;28;20185;-73
2022/12/07 08:16:41;;;;;;;53.60;39.63;;;;;;;;;;5096424;28;20265;-70
2022/12/07 08:19:07;;;;;;;33.83;25.30;;;;;;;;;;5096058;28;20178;-70
2022/12/07 08:21:33;;;;;;;36.67;23.37;;;;;;;;;;5095873;28;20173;-73
2022/12/07 08:23:59;;;;;;;44.03;28.00;;;;;;;;;;5097382;28;20178;-71
2022/12/07 08:26:25;;;;;;;48.40;33.30;;;;;;;;;;5097098;28;20246;-72
2022/12/07 08:28:51;;;;;;;49.10;35.63;;;;;;;;;;5095444;28;20181;-72
2022/12/07 08:31:18;;;;;;;41.07;29.67;;;;;;;;;;5095572;28;20213;-73
2022/12/07 08:33:45;;;;;;;34.07;23.20;;;;;;;;;;5095407;28;20276;-72
2022/12/07 08:36:12;;;;;;;29.47;23.03;;;;;;;;;;5097050;28;20201;-71
2022/12/07 08:38:39;;;;;;;29.73;21.67;;;;;;;;;;5095592;28;20458;-71
2022/12/07 08:41:06;;;;;;;33.43;22.93;;;;;;;;;;5097003;28;20832;-70
2022/12/07 08:43:32;;;;;;;32.73;22.23;;;;;;;;;;5096140;28;20803;-70
2022/12/07 08:46:01;;;;;;;36.43;23.10;;;;;;;;;;5096569;28;20256;-70
2022/12/07 08:48:27;;;;;;;31.13;22.37;;;;;;;;;;5096413;28;20645;-71
2022/12/07 08:50:53;;;;;;;32.03;22.00;;;;;;;;;;5096166;28;20184;-72
2022/12/07 08:53:19;;;;;;;26.30;21.07;;;;;;;;;;5096686;28;20680;-70
2022/12/07 08:55:46;;;;;;;30.67;21.07;;;;;;;;;;5096388;28;20307;-73
2022/12/07 08:58:12;;;;;;;30.10;21.30;;;;;;;;;;5094824;28;20201;-71
2022/12/07 09:00:38;;;;;;;39.07;22.50;;;;;;;;;;5096463;28;20184;-70
2022/12/07 09:03:04;;;;;;;30.10;22.53;;;;;;;;;;5096466;28;20181;-72
2022/12/07 09:05:30;;;;;;;27.97;20.10;;;;;;;;;;5095247;28;20611;-72
2022/12/07 09:07:58;;;;;;;27.67;19.20;;;;;;;;;;5094917;28;20207;-72
2022/12/07 09:10:24;;;;;;;31.00;20.93;;;;;;;;;;5095794;28;20268;-70
2022/12/07 09:12:50;;;;;;;30.03;20.60;;;;;;;;;;5096510;28;20188;-70
2022/12/07 09:15:16;;;;;;;28.73;21.37;;;;;;;;;;5095210;28;20177;-72
2022/12/07 09:17:42;;;;;;;23.13;18.43;;;;;;;;;;5096384;28;20197;-72
2022/12/07 09:20:08;;;;;;;24.23;17.97;;;;;;;;;;5094883;28;20181;-71
2022/12/07 09:22:34;;;;;;;20.20;16.23;;;;;;;;;;5094822;28;20213;-70
2022/12/07 09:25:00;;;;;;;19.20;15.30;;;;;;;;;;5096126;28;20180;-72
2022/12/07 09:27:27;;;;;;;19.77;15.40;;;;;;;;;;5095992;28;20672;-72
2022/12/07 09:29:53;;;;;;;19.47;13.83;;;;;;;;;;5094669;28;20201;-72
2022/12/07 09:32:19;;;;;;;20.87;12.60;;;;;;;;;;5095479;28;20199;-71
2022/12/07 09:34:45;;;;;;;17.73;11.57;;;;;;;;;;5095820;28;20664;-71
2022/12/07 09:37:11;;;;;;;17.53;12.17;;;;;;;;;;5095808;28;20326;-72
2022/12/07 09:39:40;;;;;;;17.47;12.40;;;;;;;;;;5096012;28;20184;-72
2022/12/07 09:42:07;;;;;;;16.27;12.07;;;;;;;;;;5094770;28;20181;-71
2022/12/07 09:44:33;;;;;;;16.30;11.70;;;;;;;;;;5095988;28;20173;-71
2022/12/07 09:47:00;;;;;;;20.17;11.47;;;;;;;;;;5094642;28;20250;-70
2022/12/07 09:49:28;;;;;;;20.43;11.77;;;;;;;;;;5095982;28;20185;-72
2022/12/07 09:52:18;;;;;;;16.93;11.57;;;;;;;;;;5094721;28;20181;-72
2022/12/07 09:54:46;;;;;;;16.47;10.63;;;;;;;;;;5099327;28;20165;-72
2022/12/07 09:57:12;;;;;;;15.00;9.77;;;;;;;;;;5099784;28;20753;-72
2022/12/07 09:59:40;;;;;;;15.07;10.63;;;;;;;;;;5100323;28;20195;-72
2022/12/07 10:02:24;;;;;;;19.37;9.67;;;;;;;;;;5121268;22;20315;-70
2022/12/07 10:04:50;;;;;;;22.43;14.53;;;;;;;;;;5080381;28;20188;-69
2022/12/07 10:07:16;;;;;;;18.73;10.97;;;;;;;;;;5098734;28;20653;-70
2022/12/07 10:09:42;;;;;;;15.87;12.00;;;;;;;;;;5097388;28;20615;-69
2022/12/07 10:12:10;;;;;;;15.03;9.10;;;;;;;;;;5078946;28;20208;-70
2022/12/07 10:14:37;;;;;;;13.43;8.97;;;;;;;;;;5079017;28;20181;-69
2022/12/07 10:17:03;;;;;;;16.63;10.70;;;;;;;;;;5097275;28;20201;-69
2022/12/07 10:19:31;;;;;;;16.80;8.87;;;;;;;;;;5079118;28;20204;-69
2022/12/07 10:22:10;;;;;;;15.07;8.23;;;;;;;;;;5078823;28;20204;-69
2022/12/07 10:24:39;;;;;;;20.23;7.77;;;;;;;;;;5097363;28;20521;-69
2022/12/07 10:27:05;;;;;;;15.50;9.17;;;;;;;;;;5079029;28;20653;-69
2022/12/07 10:29:32;;;;;;;18.53;10.60;;;;;;;;;;5079085;28;20219;-69
2022/12/07 10:32:03;;;;;;;14.57;7.20;;;;;;;;;;5078704;28;20241;-69
2022/12/07 10:34:31;;;;;;;17.90;8.00;;;;;;;;;;5096890;28;20169;-69
2022/12/07 10:37:17;;;;;;;12.77;6.93;;;;;;;;;;5097138;28;20193;-69
2022/12/07 10:39:51;;;;;;;9.50;6.33;;;;;;;;;;5078330;28;20722;-69
2022/12/07 10:42:19;;;;;;;15.33;9.67;;;;;;;;;;5078459;28;20197;-69
2022/12/07 10:44:45;;;;;;;11.93;6.60;;;;;;;;;;5097462;28;20220;-69
2022/12/07 10:47:14;;;;;;;10.70;5.47;;;;;;;;;;5078914;28;20181;-69
2022/12/07 10:49:59;;;;;;;14.20;7.53;;;;;;;;;;5078383;28;20181;-69
2022/12/07 10:52:25;;;;;;;11.27;6.00;;;;;;;;;;5078166;28;20258;-68
2022/12/07 10:54:57;;;;;;;12.43;6.03;;;;;;;;;;5078099;28;20181;-67
2022/12/07 10:57:33;;;;;;;14.47;5.23;;;;;;;;;;5078076;28;20193;-67
2022/12/07 11:00:02;;;;;;;10.07;5.23;;;;;;;;;;5078434;28;20507;-67
2022/12/07 11:02:38;;;;;;;12.50;6.43;;;;;;;;;;5096141;28;20213;-69
2022/12/07 11:05:14;;;;;;;9.50;5.60;;;;;;;;;;5095596;28;20182;-69
2022/12/07 11:07:52;;;;;;;11.97;5.53;;;;;;;;;;5078062;28;20173;-69
2022/12/07 11:10:20;;;;;;;9.53;5.20;;;;;;;;;;5078046;28;20242;-69
2022/12/07 11:12:58;;;;;;;8.83;5.67;;;;;;;;;;5096871;28;20173;-70
2022/12/07 11:15:57;;;;;;;13.33;5.03;;;;;;;;;;5078178;28;20275;-69
2022/12/07 11:18:23;;;;;;;11.87;4.87;;;;;;;;;;5044938;28;20779;-69
2022/12/07 11:21:07;;;;;;;9.33;4.90;;;;;;;;;;5077872;28;20229;-68
2022/12/07 11:23:51;;;;;;;9.03;4.70;;;;;;;;;;5077989;28;20544;-71
2022/12/07 11:26:23;;;;;;;14.73;4.57;;;;;;;;;;5096195;28;20185;-69
2022/12/07 11:28:59;;;;;;;11.07;4.70;;;;;;;;;;5077545;28;20161;-70
2022/12/07 11:31:44;;;;;;;9.20;4.60;;;;;;;;;;5077631;28;20201;-70
2022/12/07 11:34:18;;;;;;;11.83;5.10;;;;;;;;;;5077641;28;20212;-70
2022/12/07 11:36:45;;;;;;;8.43;4.70;;;;;;;;;;5077595;28;20679;-70
2022/12/07 11:39:30;;;;;;;9.20;5.20;;;;;;;;;;5095660;28;20543;-70
2022/12/07 11:42:09;;;;;;;10.80;5.30;;;;;;;;;;5095495;28;20196;-70
2022/12/07 11:44:54;;;;;;;7.67;4.87;;;;;;;;;;5077673;28;20175;-71
2022/12/07 11:47:31;;;;;;;10.97;4.93;;;;;;;;;;5095794;28;20553;-70
2022/12/07 11:50:03;;;;;;;8.67;5.23;;;;;;;;;;5077352;28;20578;-70
2022/12/07 11:52:43;;;;;;;9.20;5.23;;;;;;;;;;5095653;28;20664;-70
2022/12/07 11:55:16;;;;;;;7.87;5.07;;;;;;;;;;5095449;28;20169;-70
2022/12/07 11:57:44;;;;;;;9.60;5.00;;;;;;;;;;5077082;28;20189;-71
2022/12/07 12:00:15;;;;;;;9.20;4.80;;;;;;;;;;5076926;28;20215;-71
2022/12/07 12:02:49;;;;;;;16.17;4.70;;;;;;;;;;5095191;28;20192;-71
2022/12/07 12:05:21;;;;;;;9.37;5.27;;;;;;;;;;5077024;28;20241;-70
2022/12/07 12:07:49;;;;;;;8.80;4.30;;;;;;;;;;5095195;28;20230;-71
2022/12/07 12:10:18;;;;;;;9.20;4.47;;;;;;;;;;5095239;28;20177;-71
2022/12/07 12:12:49;;;;;;;10.10;4.50;;;;;;;;;;5076965;28;20177;-71
2022/12/07 12:15:33;;;;;;;11.83;4.37;;;;;;;;;;5076853;28;20279;-70
2022/12/07 12:18:06;;;;;;;8.73;3.53;;;;;;;;;;5075781;28;20287;-71
2022/12/07 12:20:42;;;;;;;9.97;4.70;;;;;;;;;;5076887;28;20166;-71
2022/12/07 12:23:13;;;;;;;8.13;4.80;;;;;;;;;;5094876;28;20184;-71
2022/12/07 12:25:42;;;;;;;8.20;4.90;;;;;;;;;;5076572;28;20234;-71
2022/12/07 12:28:18;;;;;;;8.50;4.33;;;;;;;;;;5076602;28;20207;-71
2022/12/07 12:30:44;;;;;;;8.57;4.50;;;;;;;;;;5094701;28;20782;-71
2022/12/07 12:33:15;;;;;;;9.00;4.57;;;;;;;;;;5094833;28;20271;-71
2022/12/07 12:35:41;;;;;;;6.43;3.80;;;;;;;;;;5094694;28;20302;-70
2022/12/07 12:38:33;;;;;;;8.13;4.03;;;;;;;;;;5094225;28;20300;-71
2022/12/07 12:41:01;;;;;;;15.03;4.30;;;;;;;;;;5073358;28;20209;-71
2022/12/07 12:43:47;;;;;;;11.37;4.80;;;;;;;;;;5094742;28;20173;-71
2022/12/07 12:46:33;;;;;;;11.73;5.93;;;;;;;;;;5076227;28;20560;-71
2022/12/07 12:49:14;;;;;;;10.80;4.00;;;;;;;;;;5076185;28;20686;-70
2022/12/07 12:51:41;;;;;;;8.13;3.87;;;;;;;;;;5076163;28;20201;-70
2022/12/07 12:54:27;;;;;;;5.97;4.13;;;;;;;;;;5094397;28;20705;-70
2022/12/07 12:57:00;;;;;;;6.20;3.93;;;;;;;;;;5076110;28;20177;-70
2022/12/07 12:59:30;;;;;;;5.07;3.50;;;;;;;;;;5076254;28;20221;-70
2022/12/07 13:01:57;;;;;;;19.40;10.73;;;;;;;;;;5093974;28;20216;-70
2022/12/07 13:04:34;;;;;;;7.53;5.07;;;;;;;;;;5094347;28;20656;-70
2022/12/07 13:07:00;;;;;;;13.13;7.37;;;;;;;;;;5094148;28;20684;-70
2022/12/07 13:09:28;;;;;;;21.47;8.80;;;;;;;;;;5093978;28;20652;-69
2022/12/07 13:12:02;;;;;;;32.90;19.77;;;;;;;;;;5093902;28;20211;-70
2022/12/07 13:14:40;;;;;;;16.93;9.07;;;;;;;;;;5075956;28;20594;-70
2022/12/07 13:17:12;;;;;;;13.77;10.63;;;;;;;;;;5093661;28;20203;-70
2022/12/07 13:19:41;;;;;;;12.77;5.30;;;;;;;;;;5093641;28;20667;-69
2022/12/07 13:22:30;;;;;;;11.27;5.20;;;;;;;;;;5093653;28;20197;-72
2022/12/07 13:25:08;;;;;;;8.33;4.57;;;;;;;;;;5093676;28;20598;-72
2022/12/07 13:27:37;;;;;;;7.30;3.90;;;;;;;;;;5093502;28;20181;-71
2022/12/07 13:30:08;;;;;;;12.37;4.40;;;;;;;;;;5075623;28;20185;-71
2022/12/07 13:32:34;;;;;;;13.03;5.10;;;;;;;;;;5093831;28;20292;-71
2022/12/07 13:35:01;;;;;;;11.80;4.40;;;;;;;;;;5075609;28;20181;-71
2022/12/07 13:37:28;;;;;;;7.33;4.00;;;;;;;;;;5075429;28;20234;-71
2022/12/07 13:39:57;;;;;;;7.10;3.70;;;;;;;;;;5076048;28;20246;-71
2022/12/07 13:42:27;;;;;;;10.00;3.67;;;;;;;;;;5093646;28;20192;-71
2022/12/07 13:44:53;;;;;;;5.70;3.43;;;;;;;;;;5075546;28;20188;-71
2022/12/07 13:47:26;;;;;;;9.40;3.43;;;;;;;;;;5093748;28;20177;-71
2022/12/07 13:49:56;;;;;;;6.47;3.60;;;;;;;;;;5093690;28;20193;-71
2022/12/07 13:52:31;;;;;;;6.50;3.03;;;;;;;;;;5097819;28;20197;-71
2022/12/07 13:55:02;;;;;;;6.80;3.50;;;;;;;;;;5086274;28;20181;-71
2022/12/07 13:57:30;;;;;;;5.43;3.20;;;;;;;;;;5083394;28;20219;-71
2022/12/07 13:59:56;;;;;;;7.30;3.10;;;;;;;;;;5101988;28;20180;-71
2022/12/07 14:02:32;;;;;;;7.27;3.70;;;;;;;;;;5094273;28;20223;-71
2022/12/07 14:05:14;;;;;;;8.83;2.97;;;;;;;;;;5093644;28;20181;-71
2022/12/07 14:07:58;;;;;;;9.03;4.27;;;;;;;;;;5093549;28;20656;-71
2022/12/07 14:10:27;;;;;;;12.77;4.03;;;;;;;;;;5093248;28;20177;-71
2022/12/07 14:12:54;;;;;;;11.63;4.53;;;;;;;;;;5093470;28;20192;-71
2022/12/07 14:15:21;;;;;;;12.10;5.13;;;;;;;;;;5075349;28;20213;-71
2022/12/07 14:17:54;;;;;;;15.03;6.43;;;;;;;;;;5075145;28;20429;-71
2022/12/07 14:20:34;;;;;;;10.47;5.30;;;;;;;;;;5093464;28;20244;-71
2022/12/07 14:23:08;;;;;;;7.43;3.70;;;;;;;;;;5075462;28;20173;-70
2022/12/07 14:25:44;;;;;;;13.83;4.30;;;;;;;;;;5075447;28;20513;-71
2022/12/07 14:28:25;;;;;;;10.30;3.93;;;;;;;;;;5093777;28;20219;-71
2022/12/07 14:30:51;;;;;;;10.17;4.27;;;;;;;;;;5093628;28;20196;-71
2022/12/07 14:33:17;;;;;;;8.20;3.73;;;;;;;;;;5075200;28;20230;-71
2022/12/07 14:35:43;;;;;;;13.30;4.50;;;;;;;;;;5075239;28;20563;-71
2022/12/07 14:38:09;;;;;;;17.93;8.30;;;;;;;;;;5074975;28;20231;-71